sensor_id;sensor_type;location;lat;lon;timestamp;pressure;altitude;pressure_sealevel;temperature;humidity
44765;BME280;30484;52.382;5.260;2023-02-19T00:00:24;101799.91;;;13.44;100.00
44765;BME280;30484;52.382;5.260;2023-02-19T00:02:53;101795.53;;;12.83;100.00
44765;BME280;30484;52.382;5.260;2023-02-19T00:05:22;101799.63;;;13.11;100.00
44765;BME280;30484;52.382;5.260;2023-02-19T00:07:52;101808.28;;;13.38;100.00
44765;BME280;30484;52.382;5.260;2023-02-19T00:10:21;101800.38;;;13.15;100.00
44765;BME280;30484;52.382;5.260;2023-02-19T00:12:49;101802.81;;;13.40;100.00
44765;BME280;30484;52.382;5.260;2023-02-19T00:15:18;101806.13;;;13.05;100.00
44765;BME280;30484;52.382;5.260;2023-02-19T00:17:46;101811.56;;;13.24;100.00
44765;BME280;30484;52.382;5.260;2023-02-19T00:20:15;101821.63;;;13.19;100.00
44765;BME280;30484;52.382;5.260;2023-02-19T00:22:43;101804.81;;;13.16;100.00
44765;BME280;30484;52.382;5.260;2023-02-19T00:25:13;101810.03;;;12.98;100.00
44765;BME280;30484;52.382;5.260;2023-02-19T00:27:42;101823.63;;;12.74;100.00
44765;BME280;30484;52.382;5.260;2023-02-19T00:30:11;101815.69;;;12.92;100.00
44765;BME280;30484;52.382;5.260;2023-02-19T00:32:39;101818.06;;;13.19;100.00
44765;BME280;30484;52.382;5.260;2023-02-19T00:35:08;101836.94;;;13.17;100.00
44765;BME280;30484;52.382;5.260;2023-02-19T00:37:36;101825.63;;;12.90;100.00
44765;BME280;30484;52.382;5.260;2023-02-19T00:40:05;101832.44;;;12.76;100.00
44765;BME280;30484;52.382;5.260;2023-02-19T00:42:35;101831.09;;;13.07;100.00
44765;BME280;30484;52.382;5.260;2023-02-19T00:45:04;101836.31;;;13.31;100.00
44765;BME280;30484;52.382;5.260;2023-02-19T00:47:33;101832.78;;;13.10;100.00
44765;BME280;30484;52.382;5.260;2023-02-19T00:50:01;101841.91;;;12.85;100.00
44765;BME280;30484;52.382;5.260;2023-02-19T00:52:29;101823.13;;;13.06;100.00
44765;BME280;30484;52.382;5.260;2023-02-19T00:54:58;101827.56;;;12.86;100.00
44765;BME280;30484;52.382;5.260;2023-02-19T00:57:26;101840.59;;;12.95;100.00
44765;BME280;30484;52.382;5.260;2023-02-19T00:59:56;101843.94;;;12.80;100.00
44765;BME280;30484;52.382;5.260;2023-02-19T01:02:25;101838.31;;;13.05;100.00
44765;BME280;30484;52.382;5.260;2023-02-19T01:04:53;101834.00;;;13.03;100.00
44765;BME280;30484;52.382;5.260;2023-02-19T01:07:22;101836.53;;;12.85;100.00
44765;BME280;30484;52.382;5.260;2023-02-19T01:09:51;101840.69;;;13.13;100.00
44765;BME280;30484;52.382;5.260;2023-02-19T01:12:19;101833.78;;;12.87;100.00
44765;BME280;30484;52.382;5.260;2023-02-19T01:14:50;101832.44;;;12.76;100.00
44765;BME280;30484;52.382;5.260;2023-02-19T01:17:20;101834.94;;;12.60;100.00
44765;BME280;30484;52.382;5.260;2023-02-19T01:19:50;101836.16;;;12.94;100.00
44765;BME280;30484;52.382;5.260;2023-02-19T01:22:19;101833.56;;;13.33;100.00
44765;BME280;30484;52.382;5.260;2023-02-19T01:24:47;101838.75;;;12.96;100.00
44765;BME280;30484;52.382;5.260;2023-02-19T01:27:16;101843.63;;;13.27;100.00
44765;BME280;30484;52.382;5.260;2023-02-19T01:29:44;101842.66;;;12.89;100.00
44765;BME280;30484;52.382;5.260;2023-02-19T01:32:13;101843.75;;;13.04;100.00
44765;BME280;30484;52.382;5.260;2023-02-19T01:34:42;101854.78;;;13.18;100.00
44765;BME280;30484;52.382;5.260;2023-02-19T01:37:11;101856.06;;;12.89;100.00
44765;BME280;30484;52.382;5.260;2023-02-19T01:39:39;101862.94;;;12.53;100.00
44765;BME280;30484;52.382;5.260;2023-02-19T01:42:11;101853.78;;;13.00;100.00
44765;BME280;30484;52.382;5.260;2023-02-19T01:47:55;101862.91;;;12.96;100.00
44765;BME280;30484;52.382;5.260;2023-02-19T01:50:31;101858.53;;;12.73;100.00
44765;BME280;30484;52.382;5.260;2023-02-19T01:53:05;101867.09;;;12.81;100.00
44765;BME280;30484;52.382;5.260;2023-02-19T01:55:34;101860.25;;;12.53;100.00
44765;BME280;30484;52.382;5.260;2023-02-19T01:58:03;101865.66;;;12.94;100.00
44765;BME280;30484;52.382;5.260;2023-02-19T02:00:32;101866.53;;;12.74;100.00
44765;BME280;30484;52.382;5.260;2023-02-19T02:03:01;101872.38;;;12.84;100.00
44765;BME280;30484;52.382;5.260;2023-02-19T02:05:43;101868.38;;;12.52;100.00
44765;BME280;30484;52.382;5.260;2023-02-19T02:08:13;101864.69;;;12.75;100.00
44765;BME280;30484;52.382;5.260;2023-02-19T02:10:59;101871.41;;;12.65;100.00
44765;BME280;30484;52.382;5.260;2023-02-19T02:13:28;101877.44;;;12.90;100.00
44765;BME280;30484;52.382;5.260;2023-02-19T02:16:03;101868.00;;;12.82;100.00
44765;BME280;30484;52.382;5.260;2023-02-19T02:18:40;101872.88;;;12.92;100.00
44765;BME280;30484;52.382;5.260;2023-02-19T02:21:29;101871.25;;;12.68;100.00
44765;BME280;30484;52.382;5.260;2023-02-19T02:24:10;101871.66;;;13.00;100.00
44765;BME280;30484;52.382;5.260;2023-02-19T02:26:49;101878.19;;;12.94;100.00
44765;BME280;30484;52.382;5.260;2023-02-19T02:30:02;101885.84;;;12.83;100.00
44765;BME280;30484;52.382;5.260;2023-02-19T02:32:36;101884.72;;;12.88;100.00
44765;BME280;30484;52.382;5.260;2023-02-19T02:35:08;101878.22;;;12.51;100.00
44765;BME280;30484;52.382;5.260;2023-02-19T02:37:39;101879.66;;;12.81;100.00
44765;BME280;30484;52.382;5.260;2023-02-19T02:40:09;101877.53;;;12.46;100.00
44765;BME280;30484;52.382;5.260;2023-02-19T02:42:39;101877.59;;;12.22;100.00
44765;BME280;30484;52.382;5.260;2023-02-19T02:45:22;101879.00;;;12.33;100.00
44765;BME280;30484;52.382;5.260;2023-02-19T02:48:08;101886.94;;;12.56;100.00
44765;BME280;30484;52.382;5.260;2023-02-19T02:50:40;101887.53;;;12.20;100.00
44765;BME280;30484;52.382;5.260;2023-02-19T02:53:11;101889.66;;;12.34;100.00
44765;BME280;30484;52.382;5.260;2023-02-19T02:55:59;101881.06;;;12.47;100.00
44765;BME280;30484;52.382;5.260;2023-02-19T02:58:28;101894.03;;;12.57;100.00
44765;BME280;30484;52.382;5.260;2023-02-19T03:01:02;101897.00;;;12.51;100.00
44765;BME280;30484;52.382;5.260;2023-02-19T03:03:50;101893.78;;;12.64;100.00
44765;BME280;30484;52.382;5.260;2023-02-19T03:06:21;101886.28;;;12.29;100.00
44765;BME280;30484;52.382;5.260;2023-02-19T03:08:52;101889.25;;;12.66;100.00
44765;BME280;30484;52.382;5.260;2023-02-19T03:11:22;101891.78;;;12.69;100.00
44765;BME280;30484;52.382;5.260;2023-02-19T03:14:12;101901.84;;;12.41;100.00
44765;BME280;30484;52.382;5.260;2023-02-19T03:17:05;101910.94;;;12.59;100.00
44765;BME280;30484;52.382;5.260;2023-02-19T03:19:55;101907.91;;;11.77;100.00
44765;BME280;30484;52.382;5.260;2023-02-19T03:22:26;101906.66;;;12.33;100.00
44765;BME280;30484;52.382;5.260;2023-02-19T03:24:59;101911.78;;;11.94;100.00
44765;BME280;30484;52.382;5.260;2023-02-19T03:27:45;101914.00;;;12.06;100.00
44765;BME280;30484;52.382;5.260;2023-02-19T03:30:16;101893.94;;;11.92;100.00
44765;BME280;30484;52.382;5.260;2023-02-19T03:32:50;101908.03;;;12.21;100.00
44765;BME280;30484;52.382;5.260;2023-02-19T03:35:22;101911.81;;;12.16;100.00
44765;BME280;30484;52.382;5.260;2023-02-19T03:37:53;101919.28;;;12.30;100.00
44765;BME280;30484;52.382;5.260;2023-02-19T03:40:26;101912.50;;;12.21;100.00
44765;BME280;30484;52.382;5.260;2023-02-19T03:43:00;101915.19;;;12.21;100.00
44765;BME280;30484;52.382;5.260;2023-02-19T03:45:35;101925.38;;;12.55;100.00
44765;BME280;30484;52.382;5.260;2023-02-19T03:48:21;101923.16;;;12.22;100.00
44765;BME280;30484;52.382;5.260;2023-02-19T03:50:54;101918.50;;;12.04;100.00
44765;BME280;30484;52.382;5.260;2023-02-19T03:53:28;101919.53;;;12.23;100.00
44765;BME280;30484;52.382;5.260;2023-02-19T03:56:04;101917.41;;;12.09;100.00
44765;BME280;30484;52.382;5.260;2023-02-19T03:58:37;101941.78;;;12.25;100.00
44765;BME280;30484;52.382;5.260;2023-02-19T04:01:09;101944.75;;;12.41;100.00
44765;BME280;30484;52.382;5.260;2023-02-19T04:03:42;101950.59;;;12.05;100.00
44765;BME280;30484;52.382;5.260;2023-02-19T04:06:15;101934.06;;;12.18;100.00
44765;BME280;30484;52.382;5.260;2023-02-19T04:08:46;101954.63;;;11.94;100.00
44765;BME280;30484;52.382;5.260;2023-02-19T04:11:16;101957.63;;;12.32;100.00
44765;BME280;30484;52.382;5.260;2023-02-19T04:13:47;101968.16;;;12.14;100.00
44765;BME280;30484;52.382;5.260;2023-02-19T04:16:19;101962.88;;;12.11;100.00
44765;BME280;30484;52.382;5.260;2023-02-19T04:18:51;101980.38;;;12.21;100.00
44765;BME280;30484;52.382;5.260;2023-02-19T04:21:21;101970.69;;;12.17;100.00
44765;BME280;30484;52.382;5.260;2023-02-19T04:23:50;101969.41;;;12.04;100.00
44765;BME280;30484;52.382;5.260;2023-02-19T04:26:19;101982.34;;;12.16;100.00
44765;BME280;30484;52.382;5.260;2023-02-19T04:28:49;101985.88;;;12.17;100.00
44765;BME280;30484;52.382;5.260;2023-02-19T04:31:18;101988.41;;;11.98;100.00
44765;BME280;30484;52.382;5.260;2023-02-19T04:33:46;101996.66;;;12.15;100.00
44765;BME280;30484;52.382;5.260;2023-02-19T04:36:16;101995.72;;;12.62;100.00
44765;BME280;30484;52.382;5.260;2023-02-19T04:38:45;101996.31;;;12.24;100.00
44765;BME280;30484;52.382;5.260;2023-02-19T04:41:13;102006.44;;;12.40;100.00
44765;BME280;30484;52.382;5.260;2023-02-19T04:43:42;102012.00;;;12.12;100.00
44765;BME280;30484;52.382;5.260;2023-02-19T04:46:10;102022.78;;;11.85;100.00
44765;BME280;30484;52.382;5.260;2023-02-19T04:48:38;102024.25;;;11.94;100.00
44765;BME280;30484;52.382;5.260;2023-02-19T04:51:11;102032.16;;;12.44;100.00
44765;BME280;30484;52.382;5.260;2023-02-19T04:53:41;102039.88;;;12.06;100.00
44765;BME280;30484;52.382;5.260;2023-02-19T04:56:10;102039.78;;;12.09;100.00
44765;BME280;30484;52.382;5.260;2023-02-19T04:58:40;102034.22;;;11.88;100.00
44765;BME280;30484;52.382;5.260;2023-02-19T05:01:09;102040.22;;;12.20;100.00
44765;BME280;30484;52.382;5.260;2023-02-19T05:03:39;102036.81;;;11.91;100.00
44765;BME280;30484;52.382;5.260;2023-02-19T05:06:09;102034.81;;;12.22;100.00
44765;BME280;30484;52.382;5.260;2023-02-19T05:08:38;102050.22;;;11.91;100.00
44765;BME280;30484;52.382;5.260;2023-02-19T05:11:10;102047.97;;;12.04;100.00
44765;BME280;30484;52.382;5.260;2023-02-19T05:13:39;102050.25;;;11.90;100.00
44765;BME280;30484;52.382;5.260;2023-02-19T05:16:09;102049.25;;;11.92;100.00
44765;BME280;30484;52.382;5.260;2023-02-19T05:18:39;102047.31;;;11.98;100.00
44765;BME280;30484;52.382;5.260;2023-02-19T05:21:08;102066.28;;;11.91;100.00
44765;BME280;30484;52.382;5.260;2023-02-19T05:23:37;102061.59;;;11.73;100.00
44765;BME280;30484;52.382;5.260;2023-02-19T05:26:06;102071.06;;;12.07;100.00
44765;BME280;30484;52.382;5.260;2023-02-19T05:28:36;102070.53;;;11.72;100.00
44765;BME280;30484;52.382;5.260;2023-02-19T05:31:06;102082.28;;;12.18;100.00
44765;BME280;30484;52.382;5.260;2023-02-19T05:33:36;102064.63;;;11.62;100.00
44765;BME280;30484;52.382;5.260;2023-02-19T05:36:05;102086.00;;;11.89;100.00
44765;BME280;30484;52.382;5.260;2023-02-19T05:38:35;102076.38;;;11.83;100.00
44765;BME280;30484;52.382;5.260;2023-02-19T05:41:07;102081.91;;;12.04;100.00
44765;BME280;30484;52.382;5.260;2023-02-19T05:43:38;102084.34;;;11.60;100.00
44765;BME280;30484;52.382;5.260;2023-02-19T05:46:08;102075.16;;;11.92;100.00
44765;BME280;30484;52.382;5.260;2023-02-19T05:48:37;102078.81;;;11.64;100.00
44765;BME280;30484;52.382;5.260;2023-02-19T05:51:07;102090.47;;;11.63;100.00
44765;BME280;30484;52.382;5.260;2023-02-19T05:53:37;102099.03;;;12.00;100.00
44765;BME280;30484;52.382;5.260;2023-02-19T05:56:18;102101.28;;;11.85;100.00
44765;BME280;30484;52.382;5.260;2023-02-19T05:58:52;102093.34;;;12.09;100.00
44765;BME280;30484;52.382;5.260;2023-02-19T06:01:22;102102.59;;;12.00;100.00
44765;BME280;30484;52.382;5.260;2023-02-19T06:03:51;102090.69;;;12.33;100.00
44765;BME280;30484;52.382;5.260;2023-02-19T06:06:23;102107.59;;;12.09;100.00
44765;BME280;30484;52.382;5.260;2023-02-19T06:08:52;102120.47;;;11.73;100.00
44765;BME280;30484;52.382;5.260;2023-02-19T06:11:22;102113.38;;;11.72;100.00
44765;BME280;30484;52.382;5.260;2023-02-19T06:13:55;102108.81;;;11.74;100.00
44765;BME280;30484;52.382;5.260;2023-02-19T06:16:25;102118.88;;;11.92;100.00
44765;BME280;30484;52.382;5.260;2023-02-19T06:18:54;102125.19;;;12.17;100.00
44765;BME280;30484;52.382;5.260;2023-02-19T06:21:22;102131.19;;;11.73;100.00
44765;BME280;30484;52.382;5.260;2023-02-19T06:23:51;102134.31;;;12.11;100.00
44765;BME280;30484;52.382;5.260;2023-02-19T06:26:21;102129.81;;;12.13;100.00
44765;BME280;30484;52.382;5.260;2023-02-19T06:28:51;102114.41;;;11.95;100.00
44765;BME280;30484;52.382;5.260;2023-02-19T06:31:22;102125.91;;;11.97;100.00
44765;BME280;30484;52.382;5.260;2023-02-19T06:33:51;102131.06;;;12.03;100.00
44765;BME280;30484;52.382;5.260;2023-02-19T06:36:21;102132.34;;;11.66;100.00
44765;BME280;30484;52.382;5.260;2023-02-19T06:38:50;102141.56;;;11.82;100.00
44765;BME280;30484;52.382;5.260;2023-02-19T06:41:18;102141.63;;;12.31;100.00
44765;BME280;30484;52.382;5.260;2023-02-19T06:43:47;102151.84;;;12.21;100.00
44765;BME280;30484;52.382;5.260;2023-02-19T06:46:15;102148.28;;;11.96;100.00
44765;BME280;30484;52.382;5.260;2023-02-19T06:48:45;102152.50;;;12.03;100.00
44765;BME280;30484;52.382;5.260;2023-02-19T06:51:15;102153.69;;;12.19;100.00
44765;BME280;30484;52.382;5.260;2023-02-19T06:53:44;102161.03;;;11.87;100.00
44765;BME280;30484;52.382;5.260;2023-02-19T06:56:23;102154.84;;;11.85;100.00
44765;BME280;30484;52.382;5.260;2023-02-19T06:58:53;102172.22;;;12.00;100.00
44765;BME280;30484;52.382;5.260;2023-02-19T07:01:22;102172.94;;;11.79;100.00
44765;BME280;30484;52.382;5.260;2023-02-19T07:03:52;102180.09;;;11.78;100.00
44765;BME280;30484;52.382;5.260;2023-02-19T07:06:22;102186.63;;;11.69;100.00
44765;BME280;30484;52.382;5.260;2023-02-19T07:08:52;102193.38;;;12.08;100.00
44765;BME280;30484;52.382;5.260;2023-02-19T07:11:21;102197.00;;;11.80;100.00
44765;BME280;30484;52.382;5.260;2023-02-19T07:13:55;102206.00;;;11.78;100.00
44765;BME280;30484;52.382;5.260;2023-02-19T07:16:23;102211.09;;;12.12;100.00
44765;BME280;30484;52.382;5.260;2023-02-19T07:18:54;102220.38;;;12.02;100.00
44765;BME280;30484;52.382;5.260;2023-02-19T07:21:23;102208.13;;;11.95;100.00
44765;BME280;30484;52.382;5.260;2023-02-19T07:23:54;102215.16;;;11.99;100.00
44765;BME280;30484;52.382;5.260;2023-02-19T07:26:25;102223.81;;;12.05;100.00
44765;BME280;30484;52.382;5.260;2023-02-19T07:28:54;102221.81;;;12.12;100.00
44765;BME280;30484;52.382;5.260;2023-02-19T07:31:22;102228.38;;;12.03;100.00
44765;BME280;30484;52.382;5.260;2023-02-19T07:33:53;102252.59;;;11.72;100.00
44765;BME280;30484;52.382;5.260;2023-02-19T07:36:25;102227.91;;;12.17;100.00
44765;BME280;30484;52.382;5.260;2023-02-19T07:38:54;102233.84;;;12.00;100.00
44765;BME280;30484;52.382;5.260;2023-02-19T07:41:26;102240.47;;;12.15;100.00
44765;BME280;30484;52.382;5.260;2023-02-19T07:43:54;102241.53;;;12.09;100.00
44765;BME280;30484;52.382;5.260;2023-02-19T07:46:23;102235.22;;;11.84;100.00
44765;BME280;30484;52.382;5.260;2023-02-19T07:48:55;102249.34;;;12.17;100.00
44765;BME280;30484;52.382;5.260;2023-02-19T07:51:23;102254.41;;;11.71;100.00
44765;BME280;30484;52.382;5.260;2023-02-19T07:53:52;102254.34;;;11.73;100.00
44765;BME280;30484;52.382;5.260;2023-02-19T07:56:20;102256.75;;;11.81;100.00
44765;BME280;30484;52.382;5.260;2023-02-19T07:58:49;102259.66;;;12.03;100.00
44765;BME280;30484;52.382;5.260;2023-02-19T08:01:18;102264.44;;;11.65;100.00
44765;BME280;30484;52.382;5.260;2023-02-19T08:04:09;102269.88;;;11.88;100.00
44765;BME280;30484;52.382;5.260;2023-02-19T08:06:37;102274.88;;;12.28;100.00
44765;BME280;30484;52.382;5.260;2023-02-19T08:09:06;102279.06;;;11.81;100.00
44765;BME280;30484;52.382;5.260;2023-02-19T08:11:34;102287.44;;;12.25;100.00
44765;BME280;30484;52.382;5.260;2023-02-19T08:14:23;102297.91;;;12.06;100.00
44765;BME280;30484;52.382;5.260;2023-02-19T08:16:52;102304.75;;;12.15;100.00
44765;BME280;30484;52.382;5.260;2023-02-19T08:19:22;102302.03;;;12.17;100.00
44765;BME280;30484;52.382;5.260;2023-02-19T08:21:50;102308.25;;;12.44;100.00
44765;BME280;30484;52.382;5.260;2023-02-19T08:24:22;102312.53;;;12.50;100.00
44765;BME280;30484;52.382;5.260;2023-02-19T08:26:53;102318.38;;;12.61;100.00
44765;BME280;30484;52.382;5.260;2023-02-19T08:29:23;102321.81;;;12.39;100.00
44765;BME280;30484;52.382;5.260;2023-02-19T08:31:51;102313.81;;;12.38;100.00
44765;BME280;30484;52.382;5.260;2023-02-19T08:34:22;102318.66;;;12.53;100.00
44765;BME280;30484;52.382;5.260;2023-02-19T08:36:50;102323.91;;;12.56;100.00
44765;BME280;30484;52.382;5.260;2023-02-19T08:39:19;102325.66;;;12.57;100.00
44765;BME280;30484;52.382;5.260;2023-02-19T08:41:49;102321.41;;;12.25;100.00
44765;BME280;30484;52.382;5.260;2023-02-19T08:44:19;102320.44;;;12.54;100.00
44765;BME280;30484;52.382;5.260;2023-02-19T08:46:57;102320.63;;;12.73;100.00
44765;BME280;30484;52.382;5.260;2023-02-19T08:49:28;102321.06;;;12.86;100.00
44765;BME280;30484;52.382;5.260;2023-02-19T08:51:58;102323.91;;;12.56;100.00
44765;BME280;30484;52.382;5.260;2023-02-19T08:54:27;102334.66;;;12.82;100.00
44765;BME280;30484;52.382;5.260;2023-02-19T08:56:55;102328.84;;;12.69;100.00
44765;BME280;30484;52.382;5.260;2023-02-19T08:59:26;102333.25;;;12.71;100.00
44765;BME280;30484;52.382;5.260;2023-02-19T09:02:00;102341.50;;;12.90;100.00
44765;BME280;30484;52.382;5.260;2023-02-19T09:04:30;102355.38;;;13.02;100.00
44765;BME280;30484;52.382;5.260;2023-02-19T09:06:59;102353.50;;;13.04;100.00
44765;BME280;30484;52.382;5.260;2023-02-19T09:09:28;102363.31;;;12.54;100.00
44765;BME280;30484;52.382;5.260;2023-02-19T09:11:56;102367.44;;;12.65;100.00
44765;BME280;30484;52.382;5.260;2023-02-19T09:14:26;102376.22;;;12.43;100.00
44765;BME280;30484;52.382;5.260;2023-02-19T09:16:56;102376.16;;;12.45;100.00
44765;BME280;30484;52.382;5.260;2023-02-19T09:19:25;102378.50;;;12.54;100.00
44765;BME280;30484;52.382;5.260;2023-02-19T09:21:56;102386.16;;;12.91;100.00
44765;BME280;30484;52.382;5.260;2023-02-19T09:24:25;102381.91;;;12.59;100.00
44765;BME280;30484;52.382;5.260;2023-02-19T09:26:55;102411.34;;;12.60;100.00
44765;BME280;30484;52.382;5.260;2023-02-19T09:29:24;102410.84;;;12.49;100.00
44765;BME280;30484;52.382;5.260;2023-02-19T09:31:55;102414.56;;;12.72;100.00
44765;BME280;30484;52.382;5.260;2023-02-19T09:34:24;102411.19;;;12.38;100.00
44765;BME280;30484;52.382;5.260;2023-02-19T09:36:55;102430.44;;;12.51;100.00
44765;BME280;30484;52.382;5.260;2023-02-19T09:39:23;102431.75;;;12.38;100.00
44765;BME280;30484;52.382;5.260;2023-02-19T09:41:53;102440.66;;;12.40;100.00
44765;BME280;30484;52.382;5.260;2023-02-19T09:44:26;102443.44;;;12.07;100.00
44765;BME280;30484;52.382;5.260;2023-02-19T09:47:00;102442.78;;;12.55;100.00
44765;BME280;30484;52.382;5.260;2023-02-19T09:49:32;102447.13;;;12.59;100.00
44765;BME280;30484;52.382;5.260;2023-02-19T09:52:10;102447.50;;;12.49;100.00
44765;BME280;30484;52.382;5.260;2023-02-19T09:54:43;102450.03;;;12.80;100.00
44765;BME280;30484;52.382;5.260;2023-02-19T09:57:13;102458.44;;;12.69;100.00
44765;BME280;30484;52.382;5.260;2023-02-19T09:59:44;102469.84;;;12.76;100.00
44765;BME280;30484;52.382;5.260;2023-02-19T10:02:17;102472.66;;;12.45;100.00
44765;BME280;30484;52.382;5.260;2023-02-19T10:04:48;102477.75;;;12.24;100.00
44765;BME280;30484;52.382;5.260;2023-02-19T10:07:23;102489.38;;;12.53;100.00
44765;BME280;30484;52.382;5.260;2023-02-19T10:09:54;102499.31;;;12.49;100.00
44765;BME280;30484;52.382;5.260;2023-02-19T10:12:25;102512.22;;;12.65;100.00
44765;BME280;30484;52.382;5.260;2023-02-19T10:14:56;102523.34;;;12.22;100.00
44765;BME280;30484;52.382;5.260;2023-02-19T10:17:29;102529.13;;;12.38;100.00
44765;BME280;30484;52.382;5.260;2023-02-19T10:20:00;102536.06;;;12.46;100.00
44765;BME280;30484;52.382;5.260;2023-02-19T10:22:32;102526.63;;;12.32;100.00
44765;BME280;30484;52.382;5.260;2023-02-19T10:25:05;102524.34;;;12.48;100.00
44765;BME280;30484;52.382;5.260;2023-02-19T10:27:33;102537.91;;;12.43;100.00
44765;BME280;30484;52.382;5.260;2023-02-19T10:30:02;102541.50;;;12.13;100.00
44765;BME280;30484;52.382;5.260;2023-02-19T10:32:33;102544.78;;;12.22;100.00
44765;BME280;30484;52.382;5.260;2023-02-19T10:35:07;102548.16;;;11.99;100.00
44765;BME280;30484;52.382;5.260;2023-02-19T10:37:42;102550.59;;;12.07;100.00
44765;BME280;30484;52.382;5.260;2023-02-19T10:40:14;102544.34;;;12.38;100.00
44765;BME280;30484;52.382;5.260;2023-02-19T10:42:44;102543.13;;;12.18;100.00
44765;BME280;30484;52.382;5.260;2023-02-19T10:45:17;102529.97;;;12.11;100.00
44765;BME280;30484;52.382;5.260;2023-02-19T10:47:47;102536.38;;;12.05;100.00
44765;BME280;30484;52.382;5.260;2023-02-19T10:50:23;102528.72;;;12.22;100.00
44765;BME280;30484;52.382;5.260;2023-02-19T10:52:58;102533.91;;;12.29;100.00
44765;BME280;30484;52.382;5.260;2023-02-19T10:55:35;102532.66;;;12.40;100.00
44765;BME280;30484;52.382;5.260;2023-02-19T10:58:21;102524.47;;;12.45;100.00
44765;BME280;30484;52.382;5.260;2023-02-19T11:01:14;102521.53;;;12.24;100.00
44765;BME280;30484;52.382;5.260;2023-02-19T11:03:45;102539.88;;;12.37;100.00
44765;BME280;30484;52.382;5.260;2023-02-19T11:06:17;102549.06;;;11.65;100.00
44765;BME280;30484;52.382;5.260;2023-02-19T11:08:52;102552.75;;;11.96;100.00
44765;BME280;30484;52.382;5.260;2023-02-19T11:11:30;102558.63;;;12.08;100.00
44765;BME280;30484;52.382;5.260;2023-02-19T11:14:01;102558.59;;;12.40;100.00
44765;BME280;30484;52.382;5.260;2023-02-19T11:16:39;102558.28;;;12.49;100.00
44765;BME280;30484;52.382;5.260;2023-02-19T11:19:30;102559.13;;;12.51;100.00
44765;BME280;30484;52.382;5.260;2023-02-19T11:22:18;102568.72;;;12.87;100.00
44765;BME280;30484;52.382;5.260;2023-02-19T11:24:52;102564.41;;;12.83;100.00
44765;BME280;30484;52.382;5.260;2023-02-19T11:27:25;102560.53;;;12.91;100.00
44765;BME280;30484;52.382;5.260;2023-02-19T11:29:58;102562.03;;;12.43;100.00
44765;BME280;30484;52.382;5.260;2023-02-19T11:32:47;102575.28;;;12.48;100.00
44765;BME280;30484;52.382;5.260;2023-02-19T11:35:17;102580.97;;;12.67;100.00
44765;BME280;30484;52.382;5.260;2023-02-19T11:37:57;102573.59;;;12.46;100.00
44765;BME280;30484;52.382;5.260;2023-02-19T11:40:38;102572.47;;;12.81;100.00
44765;BME280;30484;52.382;5.260;2023-02-19T11:43:24;102562.50;;;12.86;100.00
44765;BME280;30484;52.382;5.260;2023-02-19T11:46:03;102551.16;;;12.76;100.00
44765;BME280;30484;52.382;5.260;2023-02-19T11:48:54;102555.56;;;12.79;100.00
44765;BME280;30484;52.382;5.260;2023-02-19T11:51:37;102554.97;;;12.98;100.00
44765;BME280;30484;52.382;5.260;2023-02-19T11:54:31;102559.16;;;13.33;100.00
44765;BME280;30484;52.382;5.260;2023-02-19T11:57:08;102569.72;;;13.11;100.00
44765;BME280;30484;52.382;5.260;2023-02-19T11:59:45;102565.34;;;13.35;100.00
44765;BME280;30484;52.382;5.260;2023-02-19T12:02:44;102558.47;;;13.26;100.00
44765;BME280;30484;52.382;5.260;2023-02-19T12:05:22;102567.84;;;12.86;100.00
44765;BME280;30484;52.382;5.260;2023-02-19T12:10:57;102562.88;;;13.81;100.00
44765;BME280;30484;52.382;5.260;2023-02-19T12:13:49;102549.09;;;13.65;100.00
44765;BME280;30484;52.382;5.260;2023-02-19T12:16:23;102568.06;;;13.60;100.00
44765;BME280;30484;52.382;5.260;2023-02-19T12:22:26;102559.03;;;14.12;100.00
44765;BME280;30484;52.382;5.260;2023-02-19T12:25:21;102567.88;;;14.15;100.00
44765;BME280;30484;52.382;5.260;2023-02-19T12:31:00;102572.72;;;14.29;100.00
44765;BME280;30484;52.382;5.260;2023-02-19T12:33:44;102569.75;;;14.83;100.00
44765;BME280;30484;52.382;5.260;2023-02-19T12:36:19;102569.19;;;14.51;100.00
44765;BME280;30484;52.382;5.260;2023-02-19T12:38:57;102560.94;;;14.79;100.00
44765;BME280;30484;52.382;5.260;2023-02-19T12:41:35;102563.56;;;14.81;100.00
44765;BME280;30484;52.382;5.260;2023-02-19T12:44:08;102565.69;;;14.49;100.00
44765;BME280;30484;52.382;5.260;2023-02-19T12:46:42;102577.75;;;14.62;100.00
44765;BME280;30484;52.382;5.260;2023-02-19T12:49:14;102585.84;;;14.13;100.00
44765;BME280;30484;52.382;5.260;2023-02-19T12:51:48;102592.06;;;14.15;100.00
44765;BME280;30484;52.382;5.260;2023-02-19T12:54:19;102590.31;;;14.38;100.00
44765;BME280;30484;52.382;5.260;2023-02-19T12:56:53;102593.34;;;14.29;100.00
44765;BME280;30484;52.382;5.260;2023-02-19T12:59:30;102598.91;;;14.24;100.00
44765;BME280;30484;52.382;5.260;2023-02-19T13:02:06;102599.19;;;14.17;100.00
44765;BME280;30484;52.382;5.260;2023-02-19T13:04:41;102604.63;;;14.39;100.00
44765;BME280;30484;52.382;5.260;2023-02-19T13:07:15;102620.28;;;14.75;100.00
44765;BME280;30484;52.382;5.260;2023-02-19T13:09:49;102616.88;;;14.71;100.00
44765;BME280;30484;52.382;5.260;2023-02-19T13:12:22;102625.03;;;14.44;100.00
44765;BME280;30484;52.382;5.260;2023-02-19T13:14:55;102623.94;;;14.74;100.00
44765;BME280;30484;52.382;5.260;2023-02-19T13:17:30;102621.13;;;14.29;100.00
44765;BME280;30484;52.382;5.260;2023-02-19T13:20:13;102624.44;;;14.36;100.00